createdAt,value
2019-03-19T00:00:45.865Z,0.90
2019-03-19T00:03:15.387Z,0.90
2019-03-19T00:05:44.779Z,0.90
2019-03-19T00:08:14.219Z,0.90
2019-03-19T00:10:43.633Z,0.80
2019-03-19T00:13:13.074Z,0.80
2019-03-19T00:15:42.478Z,0.80
2019-03-19T00:18:11.882Z,0.70
2019-03-19T00:20:41.309Z,0.70
2019-03-19T00:23:11.005Z,0.70
2019-03-19T00:25:40.820Z,0.60
2019-03-19T00:28:10.243Z,0.60
2019-03-19T00:30:39.655Z,0.60
2019-03-19T00:33:09.085Z,0.60
2019-03-19T00:35:38.493Z,0.60
2019-03-19T00:38:07.921Z,0.60
2019-03-19T00:40:37.398Z,0.60
2019-03-19T00:43:06.960Z,0.60
2019-03-19T00:45:36.372Z,0.50
2019-03-19T00:48:05.855Z,0.50
2019-03-19T00:50:35.280Z,0.50
2019-03-19T00:53:05.138Z,0.50
2019-03-19T00:55:40.785Z,0.50
2019-03-19T00:58:05.830Z,0.50
2019-03-19T01:00:35.315Z,0.50
2019-03-19T01:03:04.811Z,0.50
2019-03-19T01:05:34.205Z,0.50
2019-03-19T01:08:03.708Z,0.40
2019-03-19T01:10:33.115Z,0.40
2019-03-19T01:13:02.690Z,0.40
2019-03-19T01:15:32.188Z,0.40
2019-03-19T01:18:01.665Z,0.40
2019-03-19T01:20:31.118Z,0.30
2019-03-19T01:23:00.895Z,0.30
2019-03-19T01:25:30.315Z,0.30
2019-03-19T01:27:59.729Z,0.20
2019-03-19T01:30:29.123Z,0.20
2019-03-19T01:32:58.536Z,0.20
2019-03-19T01:35:27.970Z,0.30
2019-03-19T01:37:57.400Z,0.30
2019-03-19T01:40:26.808Z,0.30
2019-03-19T01:42:56.246Z,0.20
2019-03-19T01:45:25.686Z,0.20
2019-03-19T01:47:55.084Z,0.20
2019-03-19T01:50:24.521Z,0.20
2019-03-19T01:52:53.922Z,0.10
2019-03-19T01:55:25.498Z,0.10
2019-03-19T01:57:54.496Z,0.10
2019-03-19T02:00:23.897Z,0.10
2019-03-19T02:02:53.332Z,0.10
2019-03-19T02:05:22.737Z,0.10
2019-03-19T02:07:52.157Z,0.10
2019-03-19T02:10:21.585Z,0.20
2019-03-19T02:12:50.996Z,0.20
2019-03-19T02:15:20.562Z,0.20
2019-03-19T02:17:49.986Z,0.20
2019-03-19T02:20:20.127Z,0.20
2019-03-19T02:22:49.560Z,0.20
2019-03-19T02:25:18.983Z,0.20
2019-03-19T02:27:48.424Z,0.20
2019-03-19T02:30:18.365Z,0.20
2019-03-19T02:33:07.513Z,0.20
2019-03-19T02:35:37.331Z,0.20
2019-03-19T02:38:06.744Z,0.20
2019-03-19T02:40:36.190Z,0.10
2019-03-19T02:43:06.027Z,0.10
2019-03-19T02:45:35.469Z,0.10
2019-03-19T02:48:05.021Z,0.10
2019-03-19T02:50:34.418Z,0.00
2019-03-19T02:53:03.904Z,0.00
2019-03-19T02:55:33.310Z,0.00
2019-03-19T02:58:02.758Z,0.00
2019-03-19T03:00:32.182Z,0.10
2019-03-19T03:03:01.650Z,0.10
2019-03-19T03:05:31.146Z,0.10
2019-03-19T03:08:00.565Z,0.10
2019-03-19T03:10:30.000Z,0.10
2019-03-19T03:12:59.400Z,0.10
2019-03-19T03:15:28.842Z,0.00
2019-03-19T03:17:58.271Z,0.10
2019-03-19T03:20:27.753Z,0.00
2019-03-19T03:22:57.175Z,0.00
2019-03-19T03:25:26.745Z,-0.10
2019-03-19T03:27:56.544Z,-0.10
2019-03-19T03:30:26.021Z,-0.10
2019-03-19T03:32:55.748Z,-0.10
2019-03-19T03:35:25.205Z,-0.10
2019-03-19T03:37:54.632Z,-0.10
2019-03-19T03:40:24.165Z,-0.10
2019-03-19T03:42:53.701Z,-0.10
2019-03-19T03:45:23.162Z,-0.20
2019-03-19T03:47:52.674Z,-0.20
2019-03-19T03:50:22.082Z,-0.20
2019-03-19T03:52:51.507Z,-0.20
2019-03-19T03:55:21.473Z,-0.20
2019-03-19T03:57:51.289Z,-0.30
2019-03-19T04:00:23.385Z,-0.30
2019-03-19T04:02:52.865Z,-0.40
2019-03-19T04:05:22.426Z,-0.40
2019-03-19T04:07:51.851Z,-0.30
2019-03-19T04:10:21.356Z,-0.40
2019-03-19T04:12:50.775Z,-0.30
2019-03-19T04:15:20.376Z,-0.40
2019-03-19T04:17:50.158Z,-0.40
2019-03-19T04:20:20.089Z,-0.30
2019-03-19T04:22:49.576Z,-0.30
2019-03-19T04:25:19.065Z,-0.30
2019-03-19T04:27:48.481Z,-0.40
2019-03-19T04:30:20.694Z,-0.40
2019-03-19T04:32:50.186Z,-0.40
2019-03-19T04:35:19.602Z,-0.40
2019-03-19T04:37:49.015Z,-0.40
2019-03-19T04:40:18.506Z,-0.50
2019-03-19T04:42:47.946Z,-0.50
2019-03-19T04:45:18.004Z,-0.50
2019-03-19T04:47:47.428Z,-0.50
2019-03-19T04:50:17.704Z,-0.50
2019-03-19T04:52:47.204Z,-0.50
2019-03-19T04:55:17.429Z,-0.50
2019-03-19T04:57:46.849Z,-0.50
2019-03-19T05:00:18.791Z,-0.50
2019-03-19T05:02:48.316Z,-0.50
2019-03-19T05:05:17.821Z,-0.50
2019-03-19T05:07:47.251Z,-0.50
2019-03-19T05:10:18.078Z,-0.40
2019-03-19T05:12:47.897Z,-0.50
2019-03-19T05:15:17.314Z,-0.50
2019-03-19T05:17:46.826Z,-0.50
2019-03-19T05:20:20.009Z,-0.50
2019-03-19T05:22:49.436Z,-0.50
2019-03-19T05:25:19.067Z,-0.50
2019-03-19T05:27:48.463Z,-0.50
2019-03-19T05:30:19.703Z,-0.50
2019-03-19T05:32:49.129Z,-0.50
2019-03-19T05:35:18.714Z,-0.50
2019-03-19T05:37:48.130Z,-0.50
2019-03-19T05:40:18.285Z,-0.50
2019-03-19T05:42:47.741Z,-0.50
2019-03-19T05:45:17.596Z,-0.40
2019-03-19T05:47:47.112Z,-0.30
2019-03-19T05:50:24.818Z,-0.20
2019-03-19T05:52:54.254Z,-0.10
2019-03-19T05:55:23.666Z,0.00
2019-03-19T05:57:53.137Z,0.10
2019-03-19T06:00:27.018Z,0.20
2019-03-19T06:02:56.635Z,0.20
2019-03-19T06:05:26.088Z,0.20
2019-03-19T06:07:55.502Z,0.30
2019-03-19T06:10:26.012Z,0.40
2019-03-19T06:12:55.732Z,0.40
2019-03-19T06:15:25.155Z,0.50
2019-03-19T06:17:54.564Z,0.50
2019-03-19T06:20:24.048Z,0.50
2019-03-19T06:22:53.531Z,0.40
2019-03-19T06:25:23.061Z,0.40
2019-03-19T06:28:00.275Z,0.50
2019-03-19T06:30:25.299Z,0.50
2019-03-19T06:32:54.721Z,0.60
2019-03-19T06:35:24.148Z,0.70
2019-03-19T06:37:53.568Z,0.70
2019-03-19T06:40:23.517Z,0.80
2019-03-19T06:42:53.036Z,0.90
2019-03-19T06:45:23.452Z,1.00
2019-03-19T06:47:53.125Z,1.00
2019-03-19T06:50:23.060Z,1.10
2019-03-19T06:52:52.560Z,1.20
2019-03-19T06:55:22.302Z,1.30
2019-03-19T06:57:51.741Z,1.40
2019-03-19T07:00:22.604Z,1.50
2019-03-19T07:02:52.091Z,1.60
2019-03-19T07:05:22.575Z,1.70
2019-03-19T07:07:52.070Z,1.70
2019-03-19T07:10:22.322Z,1.70
2019-03-19T07:12:51.832Z,1.70
2019-03-19T07:15:24.660Z,1.80
2019-03-19T07:17:54.504Z,1.90
2019-03-19T07:20:26.821Z,2.00
2019-03-19T07:22:56.280Z,2.10
2019-03-19T07:25:25.798Z,2.20
2019-03-19T07:27:55.204Z,2.30
2019-03-19T07:30:27.774Z,2.60
2019-03-19T07:32:57.227Z,3.00
2019-03-19T07:35:26.626Z,4.00
2019-03-19T07:37:56.051Z,5.50
2019-03-19T07:40:25.603Z,7.30
2019-03-19T07:42:55.044Z,8.90
2019-03-19T07:45:26.045Z,10.00
2019-03-19T07:47:55.504Z,10.90
2019-03-19T07:50:25.418Z,11.00
2019-03-19T07:52:54.855Z,10.70
2019-03-19T07:55:24.402Z,10.50
2019-03-19T07:57:53.835Z,10.60
2019-03-19T08:00:23.907Z,11.00
2019-03-19T08:02:53.429Z,11.50
2019-03-19T08:05:32.561Z,12.10
2019-03-19T08:07:54.016Z,12.50
2019-03-19T08:10:23.513Z,12.40
2019-03-19T08:12:52.946Z,12.40
2019-03-19T08:15:22.939Z,12.50
2019-03-19T08:17:52.370Z,12.10
2019-03-19T08:20:21.800Z,11.60
2019-03-19T08:22:51.241Z,11.30
2019-03-19T08:25:20.681Z,11.10
2019-03-19T08:27:50.473Z,11.30
2019-03-19T08:30:25.028Z,11.50
2019-03-19T08:32:55.004Z,11.70
2019-03-19T08:35:24.455Z,11.80
2019-03-19T08:37:53.915Z,12.10
2019-03-19T08:40:23.452Z,12.70
2019-03-19T08:42:52.887Z,12.70
2019-03-19T08:45:25.962Z,12.50
2019-03-19T08:47:55.362Z,12.40
2019-03-19T08:50:25.254Z,12.50
2019-03-19T08:52:55.554Z,12.60
2019-03-19T08:55:25.329Z,12.30
2019-03-19T08:57:54.774Z,12.80
2019-03-19T09:00:28.563Z,12.50
2019-03-19T09:02:58.008Z,12.60
2019-03-19T09:05:27.424Z,12.40
2019-03-19T09:07:57.227Z,11.90
2019-03-19T09:10:45.998Z,11.70
2019-03-19T09:13:15.435Z,12.00
2019-03-19T09:15:44.868Z,12.00
2019-03-19T09:18:16.060Z,11.40
2019-03-19T09:20:45.445Z,11.30
2019-03-19T09:23:14.890Z,11.00
2019-03-19T09:25:44.302Z,11.30
2019-03-19T09:28:13.807Z,11.60
2019-03-19T09:30:43.229Z,11.50
2019-03-19T09:33:12.735Z,11.40
2019-03-19T09:35:42.238Z,11.00
2019-03-19T09:38:11.674Z,10.90
2019-03-19T09:40:41.108Z,10.90
2019-03-19T09:43:10.535Z,10.80
2019-03-19T09:45:40.035Z,10.80
2019-03-19T09:48:09.454Z,10.70
2019-03-19T09:50:38.888Z,10.90
2019-03-19T09:53:08.383Z,10.80
2019-03-19T09:55:37.839Z,11.00
2019-03-19T09:58:07.267Z,11.20
2019-03-19T10:00:37.047Z,11.40
2019-03-19T10:03:06.569Z,11.40
2019-03-19T10:05:35.988Z,11.60
2019-03-19T10:08:05.481Z,11.70
2019-03-19T10:10:34.996Z,11.60
2019-03-19T10:13:04.590Z,11.50
2019-03-19T10:15:34.048Z,11.70
2019-03-19T10:18:03.486Z,11.70
2019-03-19T10:20:32.913Z,11.70
2019-03-19T10:23:02.352Z,11.80
2019-03-19T10:25:31.761Z,11.90
2019-03-19T10:28:01.202Z,11.90
2019-03-19T10:30:30.683Z,12.20
2019-03-19T10:33:00.227Z,12.40
2019-03-19T10:35:29.639Z,12.40
2019-03-19T10:37:59.077Z,12.40
2019-03-19T10:40:28.524Z,12.60
2019-03-19T10:42:57.954Z,12.60
2019-03-19T10:45:27.392Z,12.60
2019-03-19T10:47:56.884Z,11.90
2019-03-19T10:50:29.837Z,11.80
2019-03-19T10:52:59.274Z,11.90
2019-03-19T10:55:28.772Z,12.00
2019-03-19T10:57:58.226Z,12.30
2019-03-19T11:00:28.100Z,12.10
2019-03-19T11:02:57.602Z,12.30
2019-03-19T11:05:27.190Z,12.50
2019-03-19T11:07:56.671Z,12.80
2019-03-19T11:10:26.419Z,12.90
2019-03-19T11:12:55.830Z,12.70
2019-03-19T11:15:31.468Z,12.40
2019-03-19T11:18:00.266Z,12.00
2019-03-19T11:20:29.692Z,11.90
2019-03-19T11:22:59.261Z,11.80
2019-03-19T11:25:30.476Z,11.90
2019-03-19T11:28:00.345Z,11.80
2019-03-19T11:30:31.178Z,11.60
2019-03-19T11:33:00.667Z,11.70
2019-03-19T11:35:30.199Z,11.90
2019-03-19T11:37:59.706Z,12.50
2019-03-19T11:40:29.194Z,12.80
2019-03-19T11:42:58.674Z,12.50
2019-03-19T11:45:28.608Z,12.70
2019-03-19T11:47:58.028Z,12.80
2019-03-19T11:50:33.208Z,13.10
2019-03-19T11:53:02.295Z,13.30
2019-03-19T11:55:31.722Z,13.70
2019-03-19T11:58:01.251Z,13.60
2019-03-19T12:00:39.531Z,13.90
2019-03-19T12:03:15.434Z,13.90
2019-03-19T12:05:40.792Z,14.00
2019-03-19T12:08:10.197Z,14.30
2019-03-19T12:10:39.792Z,14.20
2019-03-19T12:13:09.608Z,13.70
2019-03-19T12:15:39.103Z,13.40
2019-03-19T12:18:08.699Z,13.10
2019-03-19T12:20:38.245Z,12.90
2019-03-19T12:23:07.753Z,12.60
2019-03-19T12:25:37.241Z,12.30
2019-03-19T12:28:07.009Z,12.20
2019-03-19T12:30:37.066Z,12.10
2019-03-19T12:33:06.635Z,12.00
2019-03-19T12:35:36.076Z,12.00
2019-03-19T12:38:05.839Z,12.00
2019-03-19T12:40:37.250Z,11.90
2019-03-19T12:43:07.203Z,11.80
2019-03-19T12:45:36.698Z,11.70
2019-03-19T12:48:06.575Z,11.80
2019-03-19T12:50:36.035Z,11.60
2019-03-19T12:53:05.621Z,11.60
2019-03-19T12:55:35.088Z,11.50
2019-03-19T12:58:05.121Z,11.50
2019-03-19T13:00:35.145Z,11.60
2019-03-19T13:03:05.133Z,11.70
2019-03-19T13:05:34.602Z,11.60
2019-03-19T13:08:04.355Z,11.60
2019-03-19T13:10:33.831Z,11.70
2019-03-19T13:13:03.266Z,11.60
2019-03-19T13:15:32.744Z,11.60
2019-03-19T13:18:02.182Z,11.50
2019-03-19T13:20:31.664Z,11.60
2019-03-19T13:23:01.464Z,11.50
2019-03-19T13:25:31.172Z,11.60
2019-03-19T13:28:00.587Z,11.60
2019-03-19T13:30:44.063Z,11.60
2019-03-19T13:33:04.779Z,11.60
2019-03-19T13:35:34.238Z,11.60
2019-03-19T13:38:03.719Z,11.60
2019-03-19T13:40:33.214Z,11.60
2019-03-19T13:43:02.824Z,11.50
2019-03-19T13:45:32.307Z,11.50
2019-03-19T13:48:01.753Z,11.50
2019-03-19T13:50:31.178Z,11.50
2019-03-19T13:53:00.605Z,11.50
2019-03-19T13:55:30.037Z,11.50
2019-03-19T13:57:59.473Z,11.50
2019-03-19T14:00:29.329Z,11.50
2019-03-19T14:02:59.308Z,11.50
2019-03-19T14:05:29.253Z,11.50
2019-03-19T14:07:58.751Z,11.60
2019-03-19T14:10:28.183Z,11.60
2019-03-19T14:12:57.616Z,11.70
2019-03-19T14:15:28.168Z,11.80
2019-03-19T14:17:57.613Z,11.90
2019-03-19T14:20:27.114Z,12.00
2019-03-19T14:22:56.609Z,12.10
2019-03-19T14:25:26.041Z,12.10
2019-03-19T14:27:58.297Z,12.10
2019-03-19T14:30:27.849Z,12.10
2019-03-19T14:32:57.247Z,12.10
2019-03-19T14:35:36.858Z,12.10
2019-03-19T14:37:57.931Z,12.00
2019-03-19T14:40:28.172Z,11.90
2019-03-19T14:43:01.023Z,11.90
2019-03-19T14:45:28.732Z,11.90
2019-03-19T14:47:58.217Z,11.80
2019-03-19T14:50:28.010Z,11.80
2019-03-19T14:52:57.497Z,11.80
2019-03-19T14:55:26.949Z,11.80
2019-03-19T14:57:56.368Z,11.70
2019-03-19T15:00:25.950Z,11.70
2019-03-19T15:02:55.393Z,11.60
2019-03-19T15:05:24.883Z,11.50
2019-03-19T15:07:54.331Z,11.50
2019-03-19T15:10:24.673Z,11.50
2019-03-19T15:12:54.207Z,11.40
2019-03-19T15:15:24.094Z,11.30
2019-03-19T15:17:53.524Z,11.30
2019-03-19T15:20:28.134Z,11.20
2019-03-19T15:22:57.548Z,11.20
2019-03-19T15:25:27.008Z,11.20
2019-03-19T15:27:56.416Z,11.10
2019-03-19T15:30:25.840Z,11.10
2019-03-19T15:32:55.275Z,11.10
2019-03-19T15:35:25.020Z,11.00
2019-03-19T15:37:54.771Z,11.00
2019-03-19T15:40:24.265Z,11.00
2019-03-19T15:42:53.710Z,11.00
2019-03-19T15:45:27.120Z,11.00
2019-03-19T15:47:56.553Z,11.00
2019-03-19T15:50:26.035Z,11.00
2019-03-19T15:52:55.447Z,11.00
2019-03-19T15:55:25.039Z,11.00
2019-03-19T15:57:54.527Z,11.00
2019-03-19T16:00:24.091Z,11.00
2019-03-19T16:02:53.530Z,11.00
2019-03-19T16:05:22.958Z,11.00
2019-03-19T16:07:52.395Z,11.00
2019-03-19T16:10:21.893Z,10.90
2019-03-19T16:12:51.326Z,10.90
2019-03-19T16:15:24.007Z,11.00
2019-03-19T16:17:53.435Z,11.00
2019-03-19T16:20:23.504Z,11.10
2019-03-19T16:22:54.691Z,11.10
2019-03-19T16:25:24.127Z,11.10
2019-03-19T16:27:53.556Z,11.20
2019-03-19T16:30:23.122Z,11.20
2019-03-19T16:32:52.573Z,11.20
2019-03-19T16:35:22.266Z,11.20
2019-03-19T16:37:51.697Z,11.20
2019-03-19T16:40:22.439Z,11.20
2019-03-19T16:42:52.046Z,11.20
2019-03-19T16:45:21.846Z,11.10
2019-03-19T16:47:51.260Z,11.10
2019-03-19T16:50:22.335Z,11.10
2019-03-19T16:52:51.873Z,11.20
2019-03-19T16:55:22.444Z,11.10
2019-03-19T16:57:51.877Z,11.20
2019-03-19T17:00:31.378Z,11.20
2019-03-19T17:03:00.818Z,11.10
2019-03-19T17:05:30.523Z,11.10
2019-03-19T17:08:00.057Z,11.10
2019-03-19T17:10:31.802Z,11.10
2019-03-19T17:13:01.220Z,11.00
2019-03-19T17:15:30.724Z,11.00
2019-03-19T17:18:00.172Z,11.00
2019-03-19T17:20:29.637Z,10.90
2019-03-19T17:22:59.139Z,10.90
2019-03-19T17:25:28.978Z,10.80
2019-03-19T17:27:58.790Z,10.80
2019-03-19T17:30:32.901Z,10.70
2019-03-19T17:33:02.340Z,10.70
2019-03-19T17:35:32.212Z,10.70
2019-03-19T17:38:01.624Z,10.60
2019-03-19T17:40:40.901Z,10.50
2019-03-19T17:43:02.564Z,10.50
2019-03-19T17:45:32.085Z,10.40
2019-03-19T17:48:01.501Z,10.40
2019-03-19T17:50:40.350Z,10.30
2019-03-19T17:53:09.757Z,10.30
2019-03-19T17:55:39.171Z,10.30
2019-03-19T17:58:08.689Z,10.30
2019-03-19T18:00:42.692Z,10.20
2019-03-19T18:03:12.492Z,10.20
2019-03-19T18:05:41.986Z,10.20
2019-03-19T18:08:11.489Z,10.20
2019-03-19T18:10:41.312Z,10.10
2019-03-19T18:13:10.723Z,10.10
2019-03-19T18:15:40.517Z,10.10
2019-03-19T18:18:10.075Z,10.10
2019-03-19T18:20:39.507Z,10.10
2019-03-19T18:23:08.927Z,10.10
2019-03-19T18:25:38.661Z,10.00
2019-03-19T18:28:08.192Z,10.00
2019-03-19T18:30:37.792Z,10.00
2019-03-19T18:33:07.293Z,10.00
2019-03-19T18:35:36.802Z,10.00
2019-03-19T18:38:06.334Z,10.00
2019-03-19T18:40:35.773Z,9.90
2019-03-19T18:43:05.333Z,9.90
2019-03-19T18:45:34.844Z,9.90
2019-03-19T18:48:04.415Z,9.90
2019-03-19T18:50:33.878Z,9.90
2019-03-19T18:53:03.314Z,9.90
2019-03-19T18:55:32.737Z,9.90
2019-03-19T18:58:02.195Z,9.90
2019-03-19T19:00:31.661Z,9.90
2019-03-19T19:03:01.087Z,9.90
2019-03-19T19:05:30.529Z,9.90
2019-03-19T19:07:59.936Z,9.80
2019-03-19T19:10:29.372Z,9.80
2019-03-19T19:12:58.792Z,9.80
2019-03-19T19:15:28.231Z,9.80
2019-03-19T19:17:57.635Z,9.80
2019-03-19T19:20:27.071Z,9.70
2019-03-19T19:22:56.573Z,9.70
2019-03-19T19:25:27.142Z,9.70
2019-03-19T19:27:56.619Z,9.60
2019-03-19T19:30:33.073Z,9.50
2019-03-19T19:33:02.854Z,9.40
2019-03-19T19:35:32.696Z,9.30
2019-03-19T19:38:03.450Z,9.30
2019-03-19T19:40:33.127Z,9.20
2019-03-19T19:43:02.599Z,9.10
2019-03-19T19:45:32.030Z,9.10
2019-03-19T19:48:01.426Z,9.00
2019-03-19T19:50:30.846Z,8.90
2019-03-19T19:53:00.289Z,8.80
2019-03-19T19:55:29.717Z,8.80
2019-03-19T19:57:59.211Z,8.70
2019-03-19T20:00:28.657Z,8.70
2019-03-19T20:02:58.085Z,8.60
2019-03-19T20:05:27.523Z,8.60
2019-03-19T20:07:56.926Z,8.50
2019-03-19T20:10:27.903Z,8.50
2019-03-19T20:12:57.398Z,8.40
2019-03-19T20:15:26.893Z,8.40
2019-03-19T20:17:56.347Z,8.40
2019-03-19T20:20:31.296Z,8.40
2019-03-19T20:23:00.833Z,8.40
2019-03-19T20:25:30.320Z,8.40
2019-03-19T20:27:59.735Z,8.40
2019-03-19T20:30:29.782Z,8.40
2019-03-19T20:32:59.230Z,8.50
2019-03-19T20:35:28.769Z,8.50
2019-03-19T20:37:58.473Z,8.60
2019-03-19T20:40:28.334Z,8.70
2019-03-19T20:42:57.782Z,8.70
2019-03-19T20:45:29.389Z,8.70
2019-03-19T20:47:58.837Z,8.80
2019-03-19T20:50:40.145Z,8.80
2019-03-19T20:53:09.656Z,8.80
2019-03-19T20:55:39.139Z,8.90
2019-03-19T20:58:08.544Z,8.90
2019-03-19T21:00:37.999Z,8.90
2019-03-19T21:03:07.481Z,8.90
2019-03-19T21:05:36.931Z,8.90
2019-03-19T21:08:06.522Z,8.90
2019-03-19T21:10:35.955Z,8.90
2019-03-19T21:13:08.867Z,8.90
2019-03-19T21:15:38.365Z,8.90
2019-03-19T21:18:07.881Z,8.90
2019-03-19T21:20:37.377Z,8.90
2019-03-19T21:23:06.814Z,8.90
2019-03-19T21:25:36.322Z,8.90
2019-03-19T21:28:13.547Z,8.90
2019-03-19T21:30:37.027Z,8.90
2019-03-19T21:33:06.443Z,8.90
2019-03-19T21:35:35.891Z,8.80
2019-03-19T21:38:05.365Z,8.80
2019-03-19T21:40:34.851Z,8.70
2019-03-19T21:43:04.355Z,8.60
2019-03-19T21:45:33.838Z,8.50
2019-03-19T21:48:03.562Z,8.40
2019-03-19T21:50:33.421Z,8.30
2019-03-19T21:53:03.182Z,8.30
2019-03-19T21:55:32.664Z,8.30
2019-03-19T21:58:02.095Z,8.30
2019-03-19T22:00:31.528Z,8.30
2019-03-19T22:03:00.933Z,8.30
2019-03-19T22:05:30.410Z,8.20
2019-03-19T22:07:59.853Z,8.20
2019-03-19T22:10:29.997Z,8.30
2019-03-19T22:12:59.446Z,8.30
2019-03-19T22:15:29.103Z,8.30
2019-03-19T22:17:58.533Z,8.30
2019-03-19T22:20:27.948Z,8.20
2019-03-19T22:22:57.389Z,8.10
2019-03-19T22:25:26.826Z,8.10
2019-03-19T22:27:56.338Z,8.00
2019-03-19T22:30:25.777Z,7.90
2019-03-19T22:32:55.462Z,7.90
2019-03-19T22:35:24.881Z,7.90
2019-03-19T22:37:54.310Z,7.90
2019-03-19T22:40:23.724Z,7.90
2019-03-19T22:42:53.169Z,8.00
2019-03-19T22:45:22.657Z,8.00
2019-03-19T22:47:52.096Z,8.00
2019-03-19T22:50:21.587Z,8.00
2019-03-19T22:52:51.008Z,8.00
2019-03-19T22:55:28.647Z,8.00
2019-03-19T22:57:51.659Z,8.00
2019-03-19T23:00:37.629Z,8.10
2019-03-19T23:03:07.941Z,8.10
2019-03-19T23:05:37.804Z,8.10
2019-03-19T23:08:07.372Z,8.20
2019-03-19T23:10:36.941Z,8.10
2019-03-19T23:13:07.026Z,8.10
2019-03-19T23:15:36.565Z,8.00
2019-03-19T23:18:06.244Z,7.90
2019-03-19T23:20:35.813Z,7.90
2019-03-19T23:23:05.677Z,7.90
2019-03-19T23:25:35.187Z,7.80
2019-03-19T23:28:04.931Z,7.70
2019-03-19T23:30:34.499Z,7.70
2019-03-19T23:33:03.923Z,7.70
2019-03-19T23:35:33.328Z,7.60
2019-03-19T23:38:02.830Z,7.50
2019-03-19T23:40:32.365Z,7.40
2019-03-19T23:43:01.803Z,7.30
2019-03-19T23:45:31.301Z,7.30
2019-03-19T23:48:00.766Z,7.20
2019-03-19T23:50:30.225Z,7.20
2019-03-19T23:52:59.641Z,7.10
2019-03-19T23:55:29.073Z,7.10
2019-03-19T23:57:58.565Z,7.00
